sensor_id;sensor_type;location;lat;lon;timestamp;P1;durP1;ratioP1;P2;durP2;ratioP2
8007;SDS011;4049;49.468;11.200;2023-11-18T00:01:22;9.67;;;7.00;;
8007;SDS011;4049;49.468;11.200;2023-11-18T00:03:49;10.43;;;6.80;;
8007;SDS011;4049;49.468;11.200;2023-11-18T00:06:16;11.53;;;8.07;;
8007;SDS011;4049;49.468;11.200;2023-11-18T00:08:43;9.83;;;7.23;;
8007;SDS011;4049;49.468;11.200;2023-11-18T00:11:10;13.87;;;7.53;;
8007;SDS011;4049;49.468;11.200;2023-11-18T00:13:38;9.57;;;6.67;;
8007;SDS011;4049;49.468;11.200;2023-11-18T00:16:07;11.27;;;7.63;;
8007;SDS011;4049;49.468;11.200;2023-11-18T00:18:38;14.00;;;7.00;;
8007;SDS011;4049;49.468;11.200;2023-11-18T00:21:05;12.40;;;7.33;;
8007;SDS011;4049;49.468;11.200;2023-11-18T00:23:33;9.77;;;7.60;;
8007;SDS011;4049;49.468;11.200;2023-11-18T00:26:00;9.77;;;6.50;;
8007;SDS011;4049;49.468;11.200;2023-11-18T00:28:27;12.50;;;7.73;;
8007;SDS011;4049;49.468;11.200;2023-11-18T00:30:54;10.33;;;7.17;;
8007;SDS011;4049;49.468;11.200;2023-11-18T00:33:21;10.10;;;6.93;;
8007;SDS011;4049;49.468;11.200;2023-11-18T00:35:50;10.17;;;7.43;;
8007;SDS011;4049;49.468;11.200;2023-11-18T00:38:17;10.60;;;7.33;;
8007;SDS011;4049;49.468;11.200;2023-11-18T00:40:44;11.93;;;6.93;;
8007;SDS011;4049;49.468;11.200;2023-11-18T00:43:11;9.50;;;7.00;;
8007;SDS011;4049;49.468;11.200;2023-11-18T00:45:38;11.13;;;6.90;;
8007;SDS011;4049;49.468;11.200;2023-11-18T00:48:06;12.10;;;7.40;;
8007;SDS011;4049;49.468;11.200;2023-11-18T00:50:33;12.53;;;7.43;;
8007;SDS011;4049;49.468;11.200;2023-11-18T00:53:01;11.50;;;7.40;;
8007;SDS011;4049;49.468;11.200;2023-11-18T00:55:28;15.13;;;8.30;;
8007;SDS011;4049;49.468;11.200;2023-11-18T00:57:57;11.53;;;7.37;;
8007;SDS011;4049;49.468;11.200;2023-11-18T01:00:27;12.03;;;8.03;;
8007;SDS011;4049;49.468;11.200;2023-11-18T01:02:56;10.07;;;7.13;;
8007;SDS011;4049;49.468;11.200;2023-11-18T01:05:24;12.37;;;7.70;;
8007;SDS011;4049;49.468;11.200;2023-11-18T01:07:51;10.23;;;7.57;;
8007;SDS011;4049;49.468;11.200;2023-11-18T01:13:33;11.50;;;7.37;;
8007;SDS011;4049;49.468;11.200;2023-11-18T01:16:01;11.37;;;7.23;;
8007;SDS011;4049;49.468;11.200;2023-11-18T01:18:30;12.20;;;8.00;;
8007;SDS011;4049;49.468;11.200;2023-11-18T01:20:57;12.97;;;7.13;;
8007;SDS011;4049;49.468;11.200;2023-11-18T01:23:25;12.27;;;7.37;;
8007;SDS011;4049;49.468;11.200;2023-11-18T01:25:52;10.83;;;6.77;;
8007;SDS011;4049;49.468;11.200;2023-11-18T01:28:21;10.57;;;6.63;;
8007;SDS011;4049;49.468;11.200;2023-11-18T01:30:54;11.00;;;7.13;;
8007;SDS011;4049;49.468;11.200;2023-11-18T01:33:28;11.27;;;6.63;;
8007;SDS011;4049;49.468;11.200;2023-11-18T01:35:57;8.57;;;6.30;;
8007;SDS011;4049;49.468;11.200;2023-11-18T01:38:27;9.23;;;5.80;;
8007;SDS011;4049;49.468;11.200;2023-11-18T01:40:55;9.43;;;6.57;;
8007;SDS011;4049;49.468;11.200;2023-11-18T01:43:22;16.70;;;7.00;;
8007;SDS011;4049;49.468;11.200;2023-11-18T01:45:49;9.67;;;6.70;;
8007;SDS011;4049;49.468;11.200;2023-11-18T01:48:17;14.83;;;6.43;;
8007;SDS011;4049;49.468;11.200;2023-11-18T01:50:47;9.53;;;6.80;;
8007;SDS011;4049;49.468;11.200;2023-11-18T01:53:17;10.57;;;7.20;;
8007;SDS011;4049;49.468;11.200;2023-11-18T01:55:45;9.33;;;7.00;;
8007;SDS011;4049;49.468;11.200;2023-11-18T01:58:14;10.30;;;6.80;;
8007;SDS011;4049;49.468;11.200;2023-11-18T02:00:45;10.63;;;7.10;;
8007;SDS011;4049;49.468;11.200;2023-11-18T02:03:13;11.93;;;7.33;;
8007;SDS011;4049;49.468;11.200;2023-11-18T02:05:41;11.73;;;7.03;;
8007;SDS011;4049;49.468;11.200;2023-11-18T02:08:09;12.30;;;7.17;;
8007;SDS011;4049;49.468;11.200;2023-11-18T02:10:40;11.43;;;6.77;;
8007;SDS011;4049;49.468;11.200;2023-11-18T02:13:18;10.70;;;7.00;;
8007;SDS011;4049;49.468;11.200;2023-11-18T02:15:52;8.57;;;6.83;;
8007;SDS011;4049;49.468;11.200;2023-11-18T02:18:22;9.73;;;6.63;;
8007;SDS011;4049;49.468;11.200;2023-11-18T02:20:53;9.80;;;6.70;;
8007;SDS011;4049;49.468;11.200;2023-11-18T02:23:22;10.77;;;6.93;;
8007;SDS011;4049;49.468;11.200;2023-11-18T02:25:56;9.27;;;6.57;;
8007;SDS011;4049;49.468;11.200;2023-11-18T02:28:24;8.17;;;6.83;;
8007;SDS011;4049;49.468;11.200;2023-11-18T02:30:54;10.23;;;6.70;;
8007;SDS011;4049;49.468;11.200;2023-11-18T02:33:35;12.37;;;7.33;;
8007;SDS011;4049;49.468;11.200;2023-11-18T02:36:10;10.93;;;7.07;;
8007;SDS011;4049;49.468;11.200;2023-11-18T02:38:49;11.23;;;7.67;;
8007;SDS011;4049;49.468;11.200;2023-11-18T02:41:21;16.47;;;8.27;;
8007;SDS011;4049;49.468;11.200;2023-11-18T02:43:54;12.23;;;7.60;;
8007;SDS011;4049;49.468;11.200;2023-11-18T02:46:23;12.03;;;6.87;;
8007;SDS011;4049;49.468;11.200;2023-11-18T02:48:55;11.00;;;7.07;;
8007;SDS011;4049;49.468;11.200;2023-11-18T02:51:22;9.87;;;6.30;;
8007;SDS011;4049;49.468;11.200;2023-11-18T02:53:49;11.70;;;7.13;;
8007;SDS011;4049;49.468;11.200;2023-11-18T02:56:16;8.90;;;6.87;;
8007;SDS011;4049;49.468;11.200;2023-11-18T02:58:45;10.20;;;6.40;;
8007;SDS011;4049;49.468;11.200;2023-11-18T03:01:12;10.87;;;6.60;;
8007;SDS011;4049;49.468;11.200;2023-11-18T03:03:39;8.57;;;6.20;;
8007;SDS011;4049;49.468;11.200;2023-11-18T03:06:07;7.67;;;6.00;;
8007;SDS011;4049;49.468;11.200;2023-11-18T03:08:36;9.93;;;6.30;;
8007;SDS011;4049;49.468;11.200;2023-11-18T03:11:03;9.07;;;6.07;;
8007;SDS011;4049;49.468;11.200;2023-11-18T03:13:34;8.67;;;6.33;;
8007;SDS011;4049;49.468;11.200;2023-11-18T03:16:05;8.73;;;5.97;;
8007;SDS011;4049;49.468;11.200;2023-11-18T03:18:36;10.30;;;5.67;;
8007;SDS011;4049;49.468;11.200;2023-11-18T03:21:05;9.23;;;6.33;;
8007;SDS011;4049;49.468;11.200;2023-11-18T03:23:33;12.10;;;6.00;;
8007;SDS011;4049;49.468;11.200;2023-11-18T03:26:00;9.13;;;6.10;;
8007;SDS011;4049;49.468;11.200;2023-11-18T03:28:30;9.47;;;6.23;;
8007;SDS011;4049;49.468;11.200;2023-11-18T03:30:59;14.03;;;6.40;;
8007;SDS011;4049;49.468;11.200;2023-11-18T03:33:27;11.87;;;6.57;;
8007;SDS011;4049;49.468;11.200;2023-11-18T03:35:54;9.57;;;5.83;;
8007;SDS011;4049;49.468;11.200;2023-11-18T03:38:22;11.63;;;6.77;;
8007;SDS011;4049;49.468;11.200;2023-11-18T03:40:49;8.90;;;6.07;;
8007;SDS011;4049;49.468;11.200;2023-11-18T03:43:17;9.83;;;6.77;;
8007;SDS011;4049;49.468;11.200;2023-11-18T03:45:45;8.13;;;5.70;;
8007;SDS011;4049;49.468;11.200;2023-11-18T03:48:11;12.40;;;6.67;;
8007;SDS011;4049;49.468;11.200;2023-11-18T03:50:40;8.07;;;6.10;;
8007;SDS011;4049;49.468;11.200;2023-11-18T03:53:09;7.93;;;6.17;;
8007;SDS011;4049;49.468;11.200;2023-11-18T03:55:37;9.73;;;6.30;;
8007;SDS011;4049;49.468;11.200;2023-11-18T03:58:05;9.57;;;5.80;;
8007;SDS011;4049;49.468;11.200;2023-11-18T04:00:34;9.67;;;6.27;;
8007;SDS011;4049;49.468;11.200;2023-11-18T04:03:06;8.93;;;5.93;;
8007;SDS011;4049;49.468;11.200;2023-11-18T04:05:38;9.57;;;5.53;;
8007;SDS011;4049;49.468;11.200;2023-11-18T04:08:10;8.00;;;6.07;;
8007;SDS011;4049;49.468;11.200;2023-11-18T04:10:37;9.20;;;6.07;;
8007;SDS011;4049;49.468;11.200;2023-11-18T04:13:04;10.00;;;6.43;;
8007;SDS011;4049;49.468;11.200;2023-11-18T04:15:31;8.93;;;5.70;;
8007;SDS011;4049;49.468;11.200;2023-11-18T04:21:54;8.90;;;5.73;;
8007;SDS011;4049;49.468;11.200;2023-11-18T04:24:21;8.17;;;5.70;;
8007;SDS011;4049;49.468;11.200;2023-11-18T04:26:48;9.03;;;5.87;;
8007;SDS011;4049;49.468;11.200;2023-11-18T04:29:15;7.77;;;5.60;;
8007;SDS011;4049;49.468;11.200;2023-11-18T04:31:49;7.60;;;5.03;;
8007;SDS011;4049;49.468;11.200;2023-11-18T04:34:35;6.53;;;5.13;;
8007;SDS011;4049;49.468;11.200;2023-11-18T04:37:22;9.30;;;5.83;;
8007;SDS011;4049;49.468;11.200;2023-11-18T04:45:06;6.90;;;5.37;;
8007;SDS011;4049;49.468;11.200;2023-11-18T04:47:01;6.33;;;5.10;;
8007;SDS011;4049;49.468;11.200;2023-11-18T04:50:28;8.83;;;5.43;;
8007;SDS011;4049;49.468;11.200;2023-11-18T05:07:17;9.30;;;5.60;;
8007;SDS011;4049;49.468;11.200;2023-11-18T05:13:20;6.17;;;5.10;;
8007;SDS011;4049;49.468;11.200;2023-11-18T05:15:47;7.20;;;5.07;;
8007;SDS011;4049;49.468;11.200;2023-11-18T05:18:15;8.50;;;5.67;;
8007;SDS011;4049;49.468;11.200;2023-11-18T05:20:41;8.77;;;5.70;;
8007;SDS011;4049;49.468;11.200;2023-11-18T05:23:09;7.27;;;5.70;;
8007;SDS011;4049;49.468;11.200;2023-11-18T05:25:36;8.33;;;5.53;;
8007;SDS011;4049;49.468;11.200;2023-11-18T05:28:05;10.33;;;6.00;;
8007;SDS011;4049;49.468;11.200;2023-11-18T05:30:34;8.60;;;5.40;;
8007;SDS011;4049;49.468;11.200;2023-11-18T05:33:02;6.43;;;4.77;;
8007;SDS011;4049;49.468;11.200;2023-11-18T05:35:30;6.63;;;5.30;;
8007;SDS011;4049;49.468;11.200;2023-11-18T05:37:57;7.40;;;5.57;;
8007;SDS011;4049;49.468;11.200;2023-11-18T05:40:25;10.07;;;5.50;;
8007;SDS011;4049;49.468;11.200;2023-11-18T05:42:54;7.47;;;5.13;;
8007;SDS011;4049;49.468;11.200;2023-11-18T05:45:22;6.23;;;4.83;;
8007;SDS011;4049;49.468;11.200;2023-11-18T05:48:05;9.43;;;5.30;;
8007;SDS011;4049;49.468;11.200;2023-11-18T05:50:32;7.87;;;5.27;;
8007;SDS011;4049;49.468;11.200;2023-11-18T05:52:59;8.57;;;5.67;;
8007;SDS011;4049;49.468;11.200;2023-11-18T05:55:25;10.37;;;5.07;;
8007;SDS011;4049;49.468;11.200;2023-11-18T05:58:00;8.73;;;5.23;;
8007;SDS011;4049;49.468;11.200;2023-11-18T06:00:27;10.53;;;6.00;;
8007;SDS011;4049;49.468;11.200;2023-11-18T06:03:07;8.63;;;5.70;;
8007;SDS011;4049;49.468;11.200;2023-11-18T06:05:51;9.93;;;5.67;;
8007;SDS011;4049;49.468;11.200;2023-11-18T06:08:19;8.50;;;5.70;;
8007;SDS011;4049;49.468;11.200;2023-11-18T06:10:49;7.77;;;5.00;;
8007;SDS011;4049;49.468;11.200;2023-11-18T06:16:20;10.30;;;5.90;;
8007;SDS011;4049;49.468;11.200;2023-11-18T06:18:53;11.87;;;6.20;;
8007;SDS011;4049;49.468;11.200;2023-11-18T06:21:21;13.50;;;6.17;;
8007;SDS011;4049;49.468;11.200;2023-11-18T06:23:49;16.23;;;5.80;;
8007;SDS011;4049;49.468;11.200;2023-11-18T06:26:22;9.03;;;5.53;;
8007;SDS011;4049;49.468;11.200;2023-11-18T06:28:52;9.53;;;5.77;;
8007;SDS011;4049;49.468;11.200;2023-11-18T06:31:25;12.73;;;6.70;;
8007;SDS011;4049;49.468;11.200;2023-11-18T06:33:54;12.73;;;6.30;;
8007;SDS011;4049;49.468;11.200;2023-11-18T06:36:21;14.03;;;6.70;;
8007;SDS011;4049;49.468;11.200;2023-11-18T06:38:52;13.20;;;7.20;;
8007;SDS011;4049;49.468;11.200;2023-11-18T06:41:30;12.87;;;6.97;;
8007;SDS011;4049;49.468;11.200;2023-11-18T06:44:00;13.83;;;7.20;;
8007;SDS011;4049;49.468;11.200;2023-11-18T06:46:40;14.20;;;7.97;;
8007;SDS011;4049;49.468;11.200;2023-11-18T06:49:08;12.00;;;7.37;;
8007;SDS011;4049;49.468;11.200;2023-11-18T06:51:43;14.87;;;7.57;;
8007;SDS011;4049;49.468;11.200;2023-11-18T06:54:10;14.60;;;7.63;;
8007;SDS011;4049;49.468;11.200;2023-11-18T06:56:39;13.37;;;8.03;;
8007;SDS011;4049;49.468;11.200;2023-11-18T06:59:11;11.67;;;7.00;;
8007;SDS011;4049;49.468;11.200;2023-11-18T07:01:47;18.43;;;7.93;;
8007;SDS011;4049;49.468;11.200;2023-11-18T07:04:30;16.33;;;8.77;;
8007;SDS011;4049;49.468;11.200;2023-11-18T07:07:00;12.03;;;7.63;;
8007;SDS011;4049;49.468;11.200;2023-11-18T07:09:33;11.53;;;7.07;;
8007;SDS011;4049;49.468;11.200;2023-11-18T07:12:01;12.00;;;7.17;;
8007;SDS011;4049;49.468;11.200;2023-11-18T07:14:28;15.20;;;7.87;;
8007;SDS011;4049;49.468;11.200;2023-11-18T07:16:55;15.90;;;8.00;;
8007;SDS011;4049;49.468;11.200;2023-11-18T07:19:29;14.00;;;8.00;;
8007;SDS011;4049;49.468;11.200;2023-11-18T07:21:58;14.63;;;7.80;;
8007;SDS011;4049;49.468;11.200;2023-11-18T07:24:35;15.47;;;8.83;;
8007;SDS011;4049;49.468;11.200;2023-11-18T07:27:02;14.90;;;8.77;;
8007;SDS011;4049;49.468;11.200;2023-11-18T07:29:32;17.00;;;10.33;;
8007;SDS011;4049;49.468;11.200;2023-11-18T07:32:10;16.20;;;9.80;;
8007;SDS011;4049;49.468;11.200;2023-11-18T07:34:38;17.23;;;9.03;;
8007;SDS011;4049;49.468;11.200;2023-11-18T07:37:06;16.07;;;8.93;;
8007;SDS011;4049;49.468;11.200;2023-11-18T07:39:36;23.20;;;11.53;;
8007;SDS011;4049;49.468;11.200;2023-11-18T07:42:10;21.90;;;11.43;;
8007;SDS011;4049;49.468;11.200;2023-11-18T07:44:57;19.90;;;10.60;;
8007;SDS011;4049;49.468;11.200;2023-11-18T07:47:30;19.53;;;9.83;;
8007;SDS011;4049;49.468;11.200;2023-11-18T07:50:11;15.40;;;7.90;;
8007;SDS011;4049;49.468;11.200;2023-11-18T07:52:44;16.47;;;8.17;;
8007;SDS011;4049;49.468;11.200;2023-11-18T07:55:13;14.67;;;7.93;;
8007;SDS011;4049;49.468;11.200;2023-11-18T07:57:40;14.17;;;8.67;;
8007;SDS011;4049;49.468;11.200;2023-11-18T08:00:07;15.30;;;8.13;;
8007;SDS011;4049;49.468;11.200;2023-11-18T08:02:35;17.13;;;8.70;;
8007;SDS011;4049;49.468;11.200;2023-11-18T08:05:05;21.87;;;8.73;;
8007;SDS011;4049;49.468;11.200;2023-11-18T08:07:49;19.30;;;9.30;;
8007;SDS011;4049;49.468;11.200;2023-11-18T08:10:16;19.50;;;9.50;;
8007;SDS011;4049;49.468;11.200;2023-11-18T08:12:43;16.70;;;8.43;;
8007;SDS011;4049;49.468;11.200;2023-11-18T08:15:11;17.97;;;9.17;;
8007;SDS011;4049;49.468;11.200;2023-11-18T08:17:57;20.97;;;9.87;;
8007;SDS011;4049;49.468;11.200;2023-11-18T08:20:24;16.77;;;9.63;;
8007;SDS011;4049;49.468;11.200;2023-11-18T08:23:05;17.93;;;9.40;;
8007;SDS011;4049;49.468;11.200;2023-11-18T08:25:32;19.80;;;9.80;;
8007;SDS011;4049;49.468;11.200;2023-11-18T08:28:01;19.13;;;9.60;;
8007;SDS011;4049;49.468;11.200;2023-11-18T08:30:28;17.27;;;9.70;;
8007;SDS011;4049;49.468;11.200;2023-11-18T08:32:57;15.90;;;9.53;;
8007;SDS011;4049;49.468;11.200;2023-11-18T08:35:24;17.67;;;9.13;;
8007;SDS011;4049;49.468;11.200;2023-11-18T08:37:51;16.10;;;8.93;;
8007;SDS011;4049;49.468;11.200;2023-11-18T08:40:27;18.30;;;10.03;;
8007;SDS011;4049;49.468;11.200;2023-11-18T08:42:54;21.70;;;10.30;;
8007;SDS011;4049;49.468;11.200;2023-11-18T08:45:23;17.13;;;9.50;;
8007;SDS011;4049;49.468;11.200;2023-11-18T08:47:53;23.40;;;12.40;;
8007;SDS011;4049;49.468;11.200;2023-11-18T08:50:27;18.47;;;10.90;;
8007;SDS011;4049;49.468;11.200;2023-11-18T08:52:56;17.57;;;9.53;;
8007;SDS011;4049;49.468;11.200;2023-11-18T08:55:24;20.70;;;9.50;;
8007;SDS011;4049;49.468;11.200;2023-11-18T08:58:05;21.87;;;10.87;;
8007;SDS011;4049;49.468;11.200;2023-11-18T09:00:44;18.00;;;9.20;;
8007;SDS011;4049;49.468;11.200;2023-11-18T09:03:13;18.97;;;10.00;;
8007;SDS011;4049;49.468;11.200;2023-11-18T09:05:50;16.73;;;9.63;;
8007;SDS011;4049;49.468;11.200;2023-11-18T09:08:24;20.50;;;9.43;;
8007;SDS011;4049;49.468;11.200;2023-11-18T09:10:52;18.53;;;9.40;;
8007;SDS011;4049;49.468;11.200;2023-11-18T09:13:22;19.50;;;10.60;;
8007;SDS011;4049;49.468;11.200;2023-11-18T09:16:00;23.10;;;12.27;;
8007;SDS011;4049;49.468;11.200;2023-11-18T09:18:28;20.77;;;10.97;;
8007;SDS011;4049;49.468;11.200;2023-11-18T09:20:58;19.43;;;10.73;;
8007;SDS011;4049;49.468;11.200;2023-11-18T09:23:26;20.17;;;10.83;;
8007;SDS011;4049;49.468;11.200;2023-11-18T09:25:54;21.07;;;11.07;;
8007;SDS011;4049;49.468;11.200;2023-11-18T09:28:27;22.23;;;10.77;;
8007;SDS011;4049;49.468;11.200;2023-11-18T09:30:54;22.43;;;11.37;;
8007;SDS011;4049;49.468;11.200;2023-11-18T09:33:23;21.40;;;12.20;;
8007;SDS011;4049;49.468;11.200;2023-11-18T09:35:54;25.40;;;13.17;;
8007;SDS011;4049;49.468;11.200;2023-11-18T09:38:24;21.70;;;11.90;;
8007;SDS011;4049;49.468;11.200;2023-11-18T09:40:53;48.23;;;25.93;;
8007;SDS011;4049;49.468;11.200;2023-11-18T09:43:21;33.00;;;19.13;;
8007;SDS011;4049;49.468;11.200;2023-11-18T09:45:51;27.37;;;14.03;;
8007;SDS011;4049;49.468;11.200;2023-11-18T09:48:21;21.40;;;11.53;;
8007;SDS011;4049;49.468;11.200;2023-11-18T09:50:51;22.20;;;12.03;;
8007;SDS011;4049;49.468;11.200;2023-11-18T09:53:22;19.70;;;11.03;;
8007;SDS011;4049;49.468;11.200;2023-11-18T09:55:52;22.33;;;11.97;;
8007;SDS011;4049;49.468;11.200;2023-11-18T09:58:28;22.23;;;11.63;;
8007;SDS011;4049;49.468;11.200;2023-11-18T10:01:07;21.43;;;10.93;;
8007;SDS011;4049;49.468;11.200;2023-11-18T10:03:39;18.00;;;10.53;;
8007;SDS011;4049;49.468;11.200;2023-11-18T10:06:08;20.33;;;11.30;;
8007;SDS011;4049;49.468;11.200;2023-11-18T10:08:35;22.10;;;11.67;;
8007;SDS011;4049;49.468;11.200;2023-11-18T10:11:03;21.70;;;12.67;;
8007;SDS011;4049;49.468;11.200;2023-11-18T10:13:34;19.87;;;11.33;;
8007;SDS011;4049;49.468;11.200;2023-11-18T10:16:06;22.37;;;12.13;;
8007;SDS011;4049;49.468;11.200;2023-11-18T10:18:35;22.87;;;11.87;;
8007;SDS011;4049;49.468;11.200;2023-11-18T10:21:10;20.50;;;11.33;;
8007;SDS011;4049;49.468;11.200;2023-11-18T10:23:44;19.77;;;11.00;;
8007;SDS011;4049;49.468;11.200;2023-11-18T10:26:25;18.57;;;10.93;;
8007;SDS011;4049;49.468;11.200;2023-11-18T10:28:53;18.57;;;10.70;;
8007;SDS011;4049;49.468;11.200;2023-11-18T10:31:22;17.80;;;10.43;;
8007;SDS011;4049;49.468;11.200;2023-11-18T10:33:49;25.07;;;12.80;;
8007;SDS011;4049;49.468;11.200;2023-11-18T10:36:17;16.07;;;9.73;;
8007;SDS011;4049;49.468;11.200;2023-11-18T10:38:47;19.63;;;11.20;;
8007;SDS011;4049;49.468;11.200;2023-11-18T10:41:17;21.03;;;11.20;;
8007;SDS011;4049;49.468;11.200;2023-11-18T10:43:45;18.00;;;10.63;;
8007;SDS011;4049;49.468;11.200;2023-11-18T10:46:13;16.50;;;9.27;;
8007;SDS011;4049;49.468;11.200;2023-11-18T10:48:42;17.27;;;10.70;;
8007;SDS011;4049;49.468;11.200;2023-11-18T10:51:12;19.33;;;9.60;;
8007;SDS011;4049;49.468;11.200;2023-11-18T10:53:41;17.30;;;10.20;;
8007;SDS011;4049;49.468;11.200;2023-11-18T10:56:18;18.07;;;10.27;;
8007;SDS011;4049;49.468;11.200;2023-11-18T10:58:51;16.73;;;10.00;;
8007;SDS011;4049;49.468;11.200;2023-11-18T11:01:26;16.23;;;9.90;;
8007;SDS011;4049;49.468;11.200;2023-11-18T11:03:59;15.87;;;10.13;;
8007;SDS011;4049;49.468;11.200;2023-11-18T11:06:29;17.77;;;9.93;;
8007;SDS011;4049;49.468;11.200;2023-11-18T11:08:57;17.37;;;10.20;;
8007;SDS011;4049;49.468;11.200;2023-11-18T11:11:25;15.83;;;9.77;;
8007;SDS011;4049;49.468;11.200;2023-11-18T11:13:59;16.60;;;9.50;;
8007;SDS011;4049;49.468;11.200;2023-11-18T11:16:28;19.87;;;9.50;;
8007;SDS011;4049;49.468;11.200;2023-11-18T11:19:02;15.87;;;9.40;;
8007;SDS011;4049;49.468;11.200;2023-11-18T11:21:33;16.13;;;9.57;;
8007;SDS011;4049;49.468;11.200;2023-11-18T11:24:09;17.17;;;9.50;;
8007;SDS011;4049;49.468;11.200;2023-11-18T11:26:50;17.10;;;9.90;;
8007;SDS011;4049;49.468;11.200;2023-11-18T11:29:30;17.10;;;9.77;;
8007;SDS011;4049;49.468;11.200;2023-11-18T11:32:06;17.87;;;11.13;;
8007;SDS011;4049;49.468;11.200;2023-11-18T11:34:46;15.43;;;9.70;;
8007;SDS011;4049;49.468;11.200;2023-11-18T11:37:21;15.57;;;9.00;;
8007;SDS011;4049;49.468;11.200;2023-11-18T11:39:51;13.20;;;8.97;;
8007;SDS011;4049;49.468;11.200;2023-11-18T11:42:21;15.33;;;9.47;;
8007;SDS011;4049;49.468;11.200;2023-11-18T11:44:49;15.17;;;9.33;;
8007;SDS011;4049;49.468;11.200;2023-11-18T11:47:20;16.67;;;9.97;;
8007;SDS011;4049;49.468;11.200;2023-11-18T11:49:52;14.97;;;9.47;;
8007;SDS011;4049;49.468;11.200;2023-11-18T11:52:26;13.70;;;9.20;;
8007;SDS011;4049;49.468;11.200;2023-11-18T11:55:10;17.63;;;10.20;;
8007;SDS011;4049;49.468;11.200;2023-11-18T11:57:49;15.90;;;9.40;;
8007;SDS011;4049;49.468;11.200;2023-11-18T12:00:18;15.00;;;9.13;;
8007;SDS011;4049;49.468;11.200;2023-11-18T12:02:51;17.67;;;9.43;;
8007;SDS011;4049;49.468;11.200;2023-11-18T12:05:21;13.57;;;9.60;;
8007;SDS011;4049;49.468;11.200;2023-11-18T12:07:51;13.77;;;8.70;;
8007;SDS011;4049;49.468;11.200;2023-11-18T12:10:20;13.10;;;8.07;;
8007;SDS011;4049;49.468;11.200;2023-11-18T12:12:56;13.80;;;9.20;;
8007;SDS011;4049;49.468;11.200;2023-11-18T12:15:49;13.20;;;8.93;;
8007;SDS011;4049;49.468;11.200;2023-11-18T12:18:19;14.23;;;8.57;;
8007;SDS011;4049;49.468;11.200;2023-11-18T12:20:48;13.20;;;8.50;;
8007;SDS011;4049;49.468;11.200;2023-11-18T12:23:19;13.47;;;8.53;;
8007;SDS011;4049;49.468;11.200;2023-11-18T12:25:48;14.50;;;9.97;;
8007;SDS011;4049;49.468;11.200;2023-11-18T12:28:19;14.27;;;8.87;;
8007;SDS011;4049;49.468;11.200;2023-11-18T12:30:52;12.93;;;9.00;;
8007;SDS011;4049;49.468;11.200;2023-11-18T12:33:21;15.00;;;9.50;;
8007;SDS011;4049;49.468;11.200;2023-11-18T12:39:06;15.63;;;9.20;;
8007;SDS011;4049;49.468;11.200;2023-11-18T12:41:55;13.63;;;8.87;;
8007;SDS011;4049;49.468;11.200;2023-11-18T12:44:31;15.67;;;10.07;;
8007;SDS011;4049;49.468;11.200;2023-11-18T12:47:04;16.40;;;10.23;;
8007;SDS011;4049;49.468;11.200;2023-11-18T12:49:40;13.37;;;9.03;;
8007;SDS011;4049;49.468;11.200;2023-11-18T12:52:09;17.20;;;10.73;;
8007;SDS011;4049;49.468;11.200;2023-11-18T12:54:41;12.93;;;8.77;;
8007;SDS011;4049;49.468;11.200;2023-11-18T12:57:08;13.37;;;8.70;;
8007;SDS011;4049;49.468;11.200;2023-11-18T12:59:39;14.10;;;9.00;;
8007;SDS011;4049;49.468;11.200;2023-11-18T13:02:06;13.93;;;8.20;;
8007;SDS011;4049;49.468;11.200;2023-11-18T13:04:38;12.07;;;7.67;;
8007;SDS011;4049;49.468;11.200;2023-11-18T13:07:06;11.70;;;7.10;;
8007;SDS011;4049;49.468;11.200;2023-11-18T13:09:36;12.93;;;7.27;;
8007;SDS011;4049;49.468;11.200;2023-11-18T13:12:07;10.60;;;7.10;;
8007;SDS011;4049;49.468;11.200;2023-11-18T13:14:35;11.60;;;7.70;;
8007;SDS011;4049;49.468;11.200;2023-11-18T13:17:02;10.57;;;7.03;;
8007;SDS011;4049;49.468;11.200;2023-11-18T13:19:31;10.13;;;6.50;;
8007;SDS011;4049;49.468;11.200;2023-11-18T13:21:59;11.47;;;6.63;;
8007;SDS011;4049;49.468;11.200;2023-11-18T13:24:28;10.83;;;6.90;;
8007;SDS011;4049;49.468;11.200;2023-11-18T13:26:57;8.93;;;5.90;;
8007;SDS011;4049;49.468;11.200;2023-11-18T13:29:30;8.23;;;6.40;;
8007;SDS011;4049;49.468;11.200;2023-11-18T13:31:57;11.53;;;7.53;;
8007;SDS011;4049;49.468;11.200;2023-11-18T13:34:28;10.53;;;7.20;;
8007;SDS011;4049;49.468;11.200;2023-11-18T13:36:57;9.47;;;6.60;;
8007;SDS011;4049;49.468;11.200;2023-11-18T13:39:25;9.83;;;6.30;;
8007;SDS011;4049;49.468;11.200;2023-11-18T13:41:53;7.67;;;5.43;;
8007;SDS011;4049;49.468;11.200;2023-11-18T13:44:33;7.90;;;5.13;;
8007;SDS011;4049;49.468;11.200;2023-11-18T13:47:03;6.70;;;4.57;;
8007;SDS011;4049;49.468;11.200;2023-11-18T13:49:31;5.90;;;4.00;;
8007;SDS011;4049;49.468;11.200;2023-11-18T13:51:59;6.33;;;4.20;;
8007;SDS011;4049;49.468;11.200;2023-11-18T13:54:27;7.90;;;3.70;;
8007;SDS011;4049;49.468;11.200;2023-11-18T13:56:54;5.10;;;3.20;;
8007;SDS011;4049;49.468;11.200;2023-11-18T13:59:23;8.63;;;3.63;;
8007;SDS011;4049;49.468;11.200;2023-11-18T14:01:52;8.27;;;5.67;;
8007;SDS011;4049;49.468;11.200;2023-11-18T14:04:22;3.63;;;2.90;;
8007;SDS011;4049;49.468;11.200;2023-11-18T14:06:50;3.60;;;2.97;;
8007;SDS011;4049;49.468;11.200;2023-11-18T14:09:17;6.60;;;2.67;;
8007;SDS011;4049;49.468;11.200;2023-11-18T14:11:46;3.93;;;2.80;;
8007;SDS011;4049;49.468;11.200;2023-11-18T14:14:13;3.37;;;2.50;;
8007;SDS011;4049;49.468;11.200;2023-11-18T14:16:40;3.00;;;2.70;;
8007;SDS011;4049;49.468;11.200;2023-11-18T14:19:08;3.97;;;2.77;;
8007;SDS011;4049;49.468;11.200;2023-11-18T14:21:36;4.03;;;2.57;;
8007;SDS011;4049;49.468;11.200;2023-11-18T14:24:03;4.90;;;2.53;;
8007;SDS011;4049;49.468;11.200;2023-11-18T14:26:30;3.77;;;2.43;;
8007;SDS011;4049;49.468;11.200;2023-11-18T14:28:57;3.27;;;2.90;;
8007;SDS011;4049;49.468;11.200;2023-11-18T14:31:24;3.60;;;2.70;;
8007;SDS011;4049;49.468;11.200;2023-11-18T14:33:51;3.87;;;2.67;;
8007;SDS011;4049;49.468;11.200;2023-11-18T14:36:20;4.07;;;2.50;;
8007;SDS011;4049;49.468;11.200;2023-11-18T14:38:47;3.43;;;2.70;;
8007;SDS011;4049;49.468;11.200;2023-11-18T14:41:14;2.67;;;2.33;;
8007;SDS011;4049;49.468;11.200;2023-11-18T14:43:42;4.97;;;3.00;;
8007;SDS011;4049;49.468;11.200;2023-11-18T14:46:09;2.53;;;2.20;;
8007;SDS011;4049;49.468;11.200;2023-11-18T14:48:36;4.20;;;2.60;;
8007;SDS011;4049;49.468;11.200;2023-11-18T14:51:03;2.87;;;2.53;;
8007;SDS011;4049;49.468;11.200;2023-11-18T14:53:33;2.93;;;2.43;;
8007;SDS011;4049;49.468;11.200;2023-11-18T14:56:00;4.57;;;3.00;;
8007;SDS011;4049;49.468;11.200;2023-11-18T14:58:29;3.97;;;2.50;;
8007;SDS011;4049;49.468;11.200;2023-11-18T15:00:57;3.63;;;2.33;;
8007;SDS011;4049;49.468;11.200;2023-11-18T15:03:25;3.03;;;2.27;;
8007;SDS011;4049;49.468;11.200;2023-11-18T15:05:52;4.60;;;2.70;;
8007;SDS011;4049;49.468;11.200;2023-11-18T15:08:19;3.37;;;2.63;;
8007;SDS011;4049;49.468;11.200;2023-11-18T15:10:48;3.87;;;2.40;;
8007;SDS011;4049;49.468;11.200;2023-11-18T15:13:16;2.90;;;2.43;;
8007;SDS011;4049;49.468;11.200;2023-11-18T15:15:43;2.93;;;2.43;;
8007;SDS011;4049;49.468;11.200;2023-11-18T15:18:12;3.60;;;2.50;;
8007;SDS011;4049;49.468;11.200;2023-11-18T15:20:42;3.53;;;2.90;;
8007;SDS011;4049;49.468;11.200;2023-11-18T15:23:09;5.33;;;2.80;;
8007;SDS011;4049;49.468;11.200;2023-11-18T15:25:36;4.43;;;2.77;;
8007;SDS011;4049;49.468;11.200;2023-11-18T15:28:05;3.10;;;2.30;;
8007;SDS011;4049;49.468;11.200;2023-11-18T15:30:35;4.27;;;2.70;;
8007;SDS011;4049;49.468;11.200;2023-11-18T15:33:02;3.17;;;2.67;;
8007;SDS011;4049;49.468;11.200;2023-11-18T15:35:29;5.27;;;3.30;;
8007;SDS011;4049;49.468;11.200;2023-11-18T15:37:56;3.83;;;2.40;;
8007;SDS011;4049;49.468;11.200;2023-11-18T15:40:23;4.77;;;2.60;;
8007;SDS011;4049;49.468;11.200;2023-11-18T15:42:51;3.90;;;3.20;;
8007;SDS011;4049;49.468;11.200;2023-11-18T15:45:20;6.70;;;5.53;;